ENG CAT
Escuela de Pilotos
Teléfono 972234126 972 23 41 26
 
Aerbrava - Meteorología

Información meteorológica aeronáutica

 

En este apartado aparece la información meteorológica aeronáutica que es utilizada en las prácticas de los alumnos de la Escuela de Pilotos de nuestro centro durante su formación, por lo que puede no ser actual y se debería utilizar por su propia cuenta y riesgo. AERBRAVA no se hace responsable de su uso.

 

TIEMPO ACTUAL

Satélite Meteorológico

sat24.com

Servei Meteorològic de Catalunya

 

LEGE 280530Z VRB01KT 9999 FEW090 07/07 Q1018
LEGE 280500Z 03004KT 9999 FEW090 07/06 Q1018
LEGE 280430Z 26003KT 230V290 9999 SCT090 07/06 Q1017
LEGE 280400Z 00000KT 9999 SCT090 07/07 Q1017
LEGE 280330Z 00000KT CAVOK 07/07 Q1017
LEGE 280300Z 00000KT CAVOK 06/06 Q1017
LEGE 280230Z 04001KT CAVOK 06/06 Q1017
LEGE 280200Z 04001KT CAVOK 06/06 Q1017
TAF LEGE 280500Z 2806/2906 VRB03KT 9999 FEW030 TX22/2814Z TN08/2806Z   BECMG 2810/2812 13008KT   BECMG 2818/2821 33004KT

Aviation Weather

 
Aerbrava en el facebook Aerbrava en el twitter Aerbrava instagram Aerbrava en el youtube Aerbrava tumblr Aerbrava flikr Aerbrava pinterest

¡html Vàlid! ¡CSS Vàlid!